Time;durP1;ratioP1;P1;durP2;ratioP2;P2;SDS_P1;SDS_P2;PMS_P1;PMS_P2;Temp;Humidity;BMP_temperature;BMP_pressure;BME280_temperature;BME280_humidity;BME280_pressure;Samples;Min_cycle;Max_cycle;Signal;HPM_P1;HPM_P2
2023/09/21 00:01:13;;;;;;;13.60;10.70;;;;;;;19.09;73.65;100344.41;107988;1254;70487;-66
2023/09/21 00:03:41;;;;;;;15.70;12.30;;;;;;;19.15;73.38;100342.39;107907;1254;71952;-66
2023/09/21 00:06:09;;;;;;;15.70;11.60;;;;;;;19.21;73.07;100344.50;107893;1257;60776;-66
2023/09/21 00:08:37;;;;;;;15.00;11.90;;;;;;;19.15;73.06;100343.51;107895;1260;60061;-66
2023/09/21 00:11:05;;;;;;;14.80;12.60;;;;;;;19.04;73.38;100343.30;107903;1254;73222;-66
2023/09/21 00:13:32;;;;;;;13.10;10.80;;;;;;;19.03;73.54;100344.45;107919;1254;70710;-65
2023/09/21 00:16:00;;;;;;;17.20;12.40;;;;;;;18.95;73.81;100344.83;107928;1257;72705;-65
2023/09/21 00:18:29;;;;;;;16.20;13.00;;;;;;;18.90;73.93;100345.50;107954;1254;61749;-66
2023/09/21 00:21:01;;;;;;;16.60;11.50;;;;;;;18.88;74.05;100344.45;107902;1260;59947;-66
2023/09/21 00:23:31;;;;;;;16.60;11.90;;;;;;;18.95;73.69;100350.92;107874;1254;73018;-65
2023/09/21 00:26:00;;;;;;;15.50;12.10;;;;;;;18.83;73.98;100351.69;107951;1254;70641;-66
2023/09/21 00:28:28;;;;;;;17.50;12.20;;;;;;;18.82;73.87;100349.98;107862;1261;72004;-66
2023/09/21 00:30:57;;;;;;;18.70;12.30;;;;;;;18.85;73.77;100351.39;107961;1254;62175;-66
2023/09/21 00:33:26;;;;;;;15.40;11.90;;;;;;;18.75;74.09;100351.71;107958;1261;59933;-66
2023/09/21 00:35:58;;;;;;;16.60;12.90;;;;;;;18.90;73.80;100353.00;107947;1254;73840;-66
2023/09/21 00:38:26;;;;;;;;;;;;;;;18.95;73.59;100346.80;108011;1254;68922;-66
2023/09/21 00:40:58;;;;;;;15.30;11.10;;;;;;;18.77;74.04;100352.64;107866;1255;72204;-66
2023/09/21 00:43:27;;;;;;;14.40;12.20;;;;;;;18.73;74.13;100355.54;107976;1254;61618;-66
2023/09/21 00:45:57;;;;;;;17.60;12.60;;;;;;;18.74;74.02;100356.58;107999;1260;60316;-67
2023/09/21 00:48:26;;;;;;;15.90;11.90;;;;;;;18.68;74.27;100356.95;107816;1254;72357;-66
2023/09/21 00:50:54;;;;;;;19.40;12.90;;;;;;;18.70;74.13;100355.80;107988;1254;69944;-65
2023/09/21 00:53:22;;;;;;;16.20;11.70;;;;;;;18.70;73.99;100355.77;107954;1258;70667;-66
2023/09/21 00:55:51;;;;;;;16.10;12.40;;;;;;;18.62;74.24;100355.90;107951;1254;60463;-66
2023/09/21 00:58:19;;;;;;;15.70;11.80;;;;;;;18.66;74.24;100354.44;107917;1254;59512;-66
2023/09/21 01:00:47;;;;;;;16.00;10.70;;;;;;;18.66;74.20;100356.94;107861;1254;71777;-66
2023/09/21 01:03:15;;;;;;;15.30;12.50;;;;;;;18.60;74.61;100349.30;107934;1254;68976;-66
2023/09/21 01:05:44;;;;;;;14.40;11.60;;;;;;;18.69;74.64;100351.20;107954;1257;71370;-65
2023/09/21 01:08:13;;;;;;;16.90;11.90;;;;;;;18.95;73.66;100348.95;107825;1254;60548;-67
2023/09/21 01:10:42;;;;;;;18.00;13.30;;;;;;;18.97;73.62;100351.48;107967;1254;60367;-66
2023/09/21 01:13:11;;;;;;;15.80;12.80;;;;;;;19.01;73.61;100350.65;108027;1254;71840;-67
2023/09/21 01:15:45;;;;;;;21.40;13.50;;;;;;;18.95;74.01;100356.42;107901;1254;70507;-65
2023/09/21 01:18:13;;;;;;;16.00;12.90;;;;;;;18.94;74.05;100357.39;107996;1260;72720;-66
2023/09/21 01:20:43;;;;;;;16.60;12.70;;;;;;;18.95;74.11;100360.13;108340;1251;60292;-66
2023/09/21 01:23:18;;;;;;;15.90;12.80;;;;;;;18.99;74.01;100358.83;108265;1251;59463;-67
2023/09/21 01:25:50;;;;;;;15.90;12.10;;;;;;;18.95;74.19;100358.36;108365;1251;73101;-66
2023/09/21 01:28:22;;;;;;;24.00;12.40;;;;;;;18.91;74.60;100359.17;108098;1254;70389;-68
2023/09/21 01:30:52;;;;;;;17.60;12.80;;;;;;;18.80;75.20;100366.35;107981;1258;72690;-67
2023/09/21 01:33:23;;;;;;;16.00;11.90;;;;;;;18.73;75.51;100361.23;108197;1254;61072;-66
2023/09/21 01:35:50;;;;;;;18.40;13.20;;;;;;;18.69;75.81;100363.11;108153;1254;59126;-71
2023/09/21 01:38:19;;;;;;;18.20;12.60;;;;;;;18.60;76.12;100362.42;108318;1254;71754;-67
2023/09/21 01:40:47;;;;;;;16.40;12.10;;;;;;;18.68;75.90;100359.29;108193;1254;70662;-66
2023/09/21 01:43:17;;;;;;;15.60;11.90;;;;;;;18.84;75.37;100359.49;108048;1253;72439;-66
2023/09/21 01:45:48;;;;;;;13.10;10.80;;;;;;;18.61;75.92;100357.23;108241;1251;62063;-66
2023/09/21 01:48:18;;;;;;;13.80;12.00;;;;;;;18.52;76.28;100357.50;108100;1254;60029;-66
2023/09/21 01:50:48;;;;;;;17.40;12.00;;;;;;;18.52;76.10;100356.20;108149;1254;73034;-66
2023/09/21 01:53:19;;;;;;;16.80;12.00;;;;;;;18.52;75.90;100359.11;108144;1259;69809;-66
2023/09/21 01:55:49;;;;;;;16.20;12.50;;;;;;;18.50;75.79;100358.34;108261;1254;72742;-66
2023/09/21 01:58:19;;;;;;;15.60;12.60;;;;;;;18.43;75.76;100366.45;108130;1253;61751;-67
2023/09/21 02:00:46;;;;;;;17.50;12.00;;;;;;;18.40;75.82;100366.98;108140;1254;59607;-66
2023/09/21 02:03:32;;;;;;;19.00;11.90;;;;;;;18.48;75.42;100369.66;108052;1259;72225;-66
2023/09/21 02:06:01;;;;;;;15.40;11.30;;;;;;;18.39;75.52;100369.73;108181;1254;68902;-65
2023/09/21 02:08:31;;;;;;;18.00;12.40;;;;;;;18.28;75.89;100376.13;108075;1258;72697;-67
2023/09/21 02:11:00;;;;;;;18.90;12.10;;;;;;;18.19;75.96;100374.55;108170;1254;61618;-66
2023/09/21 02:13:30;;;;;;;11.60;9.60;;;;;;;18.17;76.03;100375.58;108131;1253;60237;-66
2023/09/21 02:15:57;;;;;;;14.10;11.00;;;;;;;18.14;76.15;100377.39;108169;1254;73860;-65
2023/09/21 02:18:25;;;;;;;15.50;11.30;;;;;;;18.21;75.80;100371.05;108209;1252;70483;-66
2023/09/21 02:20:55;;;;;;;15.50;12.20;;;;;;;18.16;75.92;100371.89;108178;1254;72726;-66
2023/09/21 02:23:26;;;;;;;16.90;12.50;;;;;;;18.13;75.91;100370.50;108273;1254;61701;-67
2023/09/21 02:25:54;;;;;;;15.20;12.20;;;;;;;18.06;75.96;100370.27;108171;1259;60309;-66
2023/09/21 02:28:22;;;;;;;16.80;12.40;;;;;;;18.08;75.80;100369.06;108172;1252;72987;-66
2023/09/21 02:30:50;;;;;;;15.90;11.20;;;;;;;17.96;76.01;100368.26;108312;1251;69246;-66
2023/09/21 02:33:19;;;;;;;13.40;10.50;;;;;;;17.84;76.70;100367.60;108195;1251;70593;-67
2023/09/21 02:35:47;;;;;;;16.20;12.10;;;;;;;17.80;77.00;100367.23;108282;1251;60742;-66
2023/09/21 02:38:17;;;;;;;21.40;12.10;;;;;;;17.82;76.98;100366.80;108186;1251;60410;-66
2023/09/21 02:40:45;;;;;;;18.30;12.30;;;;;;;17.93;76.67;100368.60;108201;1251;73229;-65
2023/09/21 02:43:15;;;;;;;19.10;12.50;;;;;;;18.07;76.11;100365.75;108207;1251;69678;-65
2023/09/21 02:45:44;;;;;;;15.20;12.60;;;;;;;18.10;75.96;100365.01;108302;1251;72719;-66
2023/09/21 02:48:15;;;;;;;19.30;12.90;;;;;;;18.05;76.12;100369.77;108240;1251;60919;-66
2023/09/21 02:50:47;;;;;;;21.00;13.20;;;;;;;17.99;76.27;100373.38;108190;1251;60379;-65
2023/09/21 02:53:16;;;;;;;16.20;11.70;;;;;;;17.97;76.30;100369.08;108262;1251;71616;-64
2023/09/21 02:55:44;;;;;;;20.10;13.80;;;;;;;17.87;76.50;100366.13;108311;1251;67713;-65
2023/09/21 02:58:13;;;;;;;18.70;12.90;;;;;;;17.91;76.50;100368.23;108356;1251;73530;-66
2023/09/21 03:00:49;;;;;;;15.30;12.00;;;;;;;17.88;76.42;100363.82;108259;1254;60273;-66
2023/09/21 03:03:20;;;;;;;16.90;12.70;;;;;;;17.79;77.03;100363.94;108121;1251;60369;-66
2023/09/21 03:05:49;;;;;;;13.00;10.90;;;;;;;17.88;76.78;100361.69;108155;1258;72657;-67
2023/09/21 03:08:17;;;;;;;17.10;12.60;;;;;;;17.91;76.65;100366.45;108194;1251;69542;-67
2023/09/21 03:10:52;;;;;;;14.10;11.80;;;;;;;17.82;76.83;100366.98;108232;1251;72409;-66
2023/09/21 03:13:21;;;;;;;14.70;11.90;;;;;;;17.85;76.88;100362.18;108202;1254;61750;-66
2023/09/21 03:15:54;;;;;;;18.00;12.60;;;;;;;17.85;76.75;100363.45;108293;1251;60421;-67
2023/09/21 03:18:24;;;;;;;13.80;11.80;;;;;;;17.72;77.21;100364.61;108236;1251;73799;-66
2023/09/21 03:20:52;;;;;;;17.30;12.20;;;;;;;17.64;77.42;100368.60;108146;1251;70118;-66
2023/09/21 03:23:21;;;;;;;19.20;12.90;;;;;;;17.59;77.68;100376.05;108164;1254;72743;-66
2023/09/21 03:25:49;;;;;;;15.60;12.50;;;;;;;17.58;77.68;100378.09;108228;1251;62093;-66
2023/09/21 03:28:19;;;;;;;17.10;12.80;;;;;;;17.60;77.65;100377.77;108186;1254;60997;-66
2023/09/21 03:30:49;;;;;;;23.40;14.70;;;;;;;17.59;77.68;100381.71;108067;1255;73918;-66
2023/09/21 03:33:18;;;;;;;18.80;12.60;;;;;;;17.62;77.60;100384.40;108183;1257;69957;-66
2023/09/21 03:35:46;;;;;;;18.90;14.20;;;;;;;17.56;78.10;100386.17;108203;1254;71189;-68
2023/09/21 03:38:18;;;;;;;17.70;11.30;;;;;;;17.53;78.42;100383.37;108138;1256;61679;-66
2023/09/21 03:40:50;;;;;;;17.00;12.10;;;;;;;17.53;78.61;100386.72;108066;1254;60277;-66
2023/09/21 03:43:22;;;;;;;18.30;13.60;;;;;;;17.50;78.88;100389.71;108126;1259;73873;-66
2023/09/21 03:45:50;;;;;;;18.70;13.90;;;;;;;17.67;78.64;100389.73;108149;1254;68798;-66
2023/09/21 03:48:18;;;;;;;21.90;13.70;;;;;;;17.69;78.65;100390.52;108219;1254;71250;-67
2023/09/21 03:50:47;;;;;;;23.90;13.40;;;;;;;17.76;78.39;100392.00;108111;1256;61686;-66
2023/09/21 03:53:16;;;;;;;22.30;12.30;;;;;;;17.78;78.49;100388.32;107915;1257;60926;-66
2023/09/21 03:55:46;;;;;;;16.10;12.10;;;;;;;17.77;78.73;100391.08;108173;1254;72930;-66
2023/09/21 03:58:15;;;;;;;15.20;10.00;;;;;;;17.85;78.68;100392.20;108129;1254;68374;-67
2023/09/21 04:00:46;;;;;;;14.50;10.90;;;;;;;17.88;78.72;100394.70;108170;1256;72693;-66
2023/09/21 04:03:14;;;;;;;14.00;11.40;;;;;;;17.90;78.84;100393.35;108091;1255;60623;-66
2023/09/21 04:05:54;;;;;;;15.00;12.50;;;;;;;17.94;78.84;100396.80;108042;1252;60339;-65
2023/09/21 04:08:21;;;;;;;16.70;12.10;;;;;;;18.21;78.02;100392.55;108110;1254;73066;-66
2023/09/21 04:10:49;;;;;;;16.00;12.10;;;;;;;18.51;77.10;100390.48;108196;1254;68944;-66
2023/09/21 04:13:17;;;;;;;14.90;10.90;;;;;;;18.43;77.29;100393.63;108125;1254;70459;-66
2023/09/21 04:15:44;;;;;;;16.30;12.70;;;;;;;18.49;77.37;100392.02;108189;1251;61608;-66
2023/09/21 04:18:11;;;;;;;12.10;9.40;;;;;;;18.66;76.94;100389.27;108019;1252;61298;-66
2023/09/21 04:20:40;;;;;;;20.20;12.10;;;;;;;18.86;77.13;100387.25;108088;1253;75069;-66
2023/09/21 04:23:09;;;;;;;15.20;11.80;;;;;;;19.07;77.11;100389.36;108091;1257;69183;-66
2023/09/21 04:25:38;;;;;;;13.30;10.20;;;;;;;19.31;76.87;100391.09;108168;1257;72440;-66
2023/09/21 04:28:06;;;;;;;14.00;11.30;;;;;;;19.65;76.22;100392.11;108190;1256;60364;-67
2023/09/21 04:30:34;;;;;;;14.60;10.00;;;;;;;19.99;75.58;100394.17;108213;1254;60504;-66
2023/09/21 04:33:04;;;;;;;11.50;10.00;;;;;;;20.31;74.65;100394.20;108231;1253;74245;-67
2023/09/21 04:35:33;;;;;;;14.20;11.20;;;;;;;20.60;73.19;100394.56;108202;1255;69222;-66
2023/09/21 04:38:03;;;;;;;12.60;9.40;;;;;;;20.63;72.14;100392.02;108125;1254;71302;-66
2023/09/21 04:40:31;;;;;;;12.00;10.00;;;;;;;20.60;71.79;100389.95;108118;1254;60416;-66
2023/09/21 04:42:58;;;;;;;14.30;9.50;;;;;;;20.68;71.56;100393.08;108007;1259;60447;-67
2023/09/21 04:45:26;;;;;;;9.90;7.90;;;;;;;20.87;70.68;100393.44;108040;1255;73838;-66
2023/09/21 04:48:03;;;;;;;15.00;9.40;;;;;;;20.87;70.29;100397.50;108059;1254;68881;-66
2023/09/21 04:50:33;;;;;;;14.20;8.40;;;;;;;20.88;70.06;100398.51;108045;1254;71745;-66
2023/09/21 04:53:01;;;;;;;12.10;9.20;;;;;;;20.96;69.63;100397.59;108095;1254;60552;-66
2023/09/21 04:55:31;;;;;;;14.70;9.30;;;;;;;21.04;69.46;100399.27;108112;1254;60235;-67
2023/09/21 04:57:59;;;;;;;12.60;9.70;;;;;;;21.06;69.46;100399.63;108065;1260;72627;-67
2023/09/21 05:00:29;;;;;;;12.60;10.40;;;;;;;21.07;69.61;100402.98;108003;1255;68168;-67
2023/09/21 05:02:57;;;;;;;14.90;10.60;;;;;;;21.04;69.71;100400.39;108037;1255;72758;-67
2023/09/21 05:05:26;;;;;;;16.60;9.80;;;;;;;21.04;69.90;100404.27;108058;1254;60695;-67
2023/09/21 05:07:55;;;;;;;19.10;10.70;;;;;;;21.06;70.02;100406.09;107994;1255;60325;-66
2023/09/21 05:10:22;;;;;;;14.40;10.00;;;;;;;21.12;70.09;100405.25;107927;1254;76028;-66
2023/09/21 05:12:51;;;;;;;19.30;9.30;;;;;;;21.11;70.09;100404.79;108051;1254;69519;-67
2023/09/21 05:15:20;;;;;;;13.80;8.10;;;;;;;21.21;70.01;100407.08;107938;1254;73238;-67
2023/09/21 05:17:47;;;;;;;18.80;10.90;;;;;;;21.24;70.15;100404.54;108008;1256;62124;-66
2023/09/21 05:20:15;;;;;;;26.90;12.00;;;;;;;21.32;70.37;100406.27;108031;1253;60440;-67
2023/09/21 05:22:43;;;;;;;23.50;13.40;;;;;;;21.30;70.87;100403.19;108014;1260;73866;-67
2023/09/21 05:25:10;;;;;;;27.40;15.10;;;;;;;21.31;71.22;100405.95;108018;1254;68918;-68
2023/09/21 05:27:40;;;;;;;32.50;16.20;;;;;;;21.42;71.34;100404.39;108164;1257;72723;-67
2023/09/21 05:30:10;;;;;;;30.80;16.50;;;;;;;21.56;71.41;100405.63;108058;1258;60430;-66
2023/09/21 05:32:38;;;;;;;25.80;17.00;;;;;;;21.64;71.47;100404.36;108116;1254;59718;-66
2023/09/21 05:35:07;;;;;;;38.70;18.20;;;;;;;21.81;71.61;100403.45;108080;1258;73905;-67
2023/09/21 05:37:35;;;;;;;24.80;13.80;;;;;;;22.16;71.95;100400.85;108123;1254;68731;-67
2023/09/21 05:40:05;;;;;;;31.20;15.60;;;;;;;22.46;70.43;100404.31;108141;1257;71494;-67
2023/09/21 05:42:34;;;;;;;21.40;12.30;;;;;;;22.75;69.46;100405.81;108124;1255;60300;-67
2023/09/21 05:45:07;;;;;;;22.90;11.80;;;;;;;22.89;66.76;100405.77;108087;1255;60320;-66
2023/09/21 05:47:35;;;;;;;23.90;11.10;;;;;;;22.86;66.40;100400.45;108139;1253;72744;-67
2023/09/21 05:50:05;;;;;;;17.30;10.20;;;;;;;23.01;65.37;100401.20;108073;1257;69065;-67
2023/09/21 05:52:35;;;;;;;18.10;9.90;;;;;;;23.30;63.26;100405.36;108011;1254;70435;-67
2023/09/21 05:55:03;;;;;;;21.00;9.80;;;;;;;23.82;61.70;100401.92;108043;1255;61675;-67
2023/09/21 05:57:31;;;;;;;21.50;8.90;;;;;;;24.23;60.17;100401.88;108087;1252;60315;-66
2023/09/21 05:59:58;;;;;;;17.60;9.40;;;;;;;24.42;57.65;100401.58;108144;1253;72629;-67
2023/09/21 06:02:27;;;;;;;17.80;9.00;;;;;;;24.59;56.73;100402.80;108159;1254;71157;-66
2023/09/21 06:04:55;;;;;;;18.60;9.60;;;;;;;24.70;56.13;100403.04;108276;1251;72726;-66
2023/09/21 06:07:24;;;;;;;23.20;9.30;;;;;;;24.80;55.63;100400.85;108330;1251;61106;-66
2023/09/21 06:09:52;;;;;;;27.50;10.10;;;;;;;25.03;55.19;100399.20;108220;1258;60398;-67
2023/09/21 06:12:19;;;;;;;32.30;10.10;;;;;;;25.26;54.71;100403.21;108341;1251;73847;-67
2023/09/21 06:14:50;;;;;;;22.00;9.10;;;;;;;25.26;54.89;100401.54;108289;1251;70226;-66
2023/09/21 06:17:18;;;;;;;13.00;7.40;;;;;;;25.60;54.07;100401.25;108215;1257;71059;-67
2023/09/21 06:19:46;;;;;;;17.80;8.10;;;;;;;25.90;52.94;100404.27;108259;1254;60451;-67
2023/09/21 06:22:13;;;;;;;18.80;7.80;;;;;;;26.10;51.72;100409.89;108294;1251;60356;-67
2023/09/21 06:24:42;;;;;;;18.40;7.50;;;;;;;26.30;50.37;100408.70;108337;1251;73470;-67
2023/09/21 06:27:10;;;;;;;21.90;7.20;;;;;;;26.54;49.10;100403.61;108223;1254;71390;-67
2023/09/21 06:29:38;;;;;;;26.40;7.50;;;;;;;26.73;48.23;100404.04;108159;1253;71483;-66
2023/09/21 06:32:07;;;;;;;20.00;8.00;;;;;;;26.90;47.45;100401.24;108153;1254;61165;-66
2023/09/21 06:34:39;;;;;;;24.50;6.70;;;;;;;27.23;46.96;100398.46;108225;1254;60322;-68
2023/09/21 06:37:06;;;;;;;24.30;7.30;;;;;;;27.84;45.25;100403.14;108180;1254;73312;-67
2023/09/21 06:39:34;;;;;;;20.20;5.80;;;;;;;28.60;43.45;100404.79;108172;1256;69199;-68
2023/09/21 06:42:02;;;;;;;17.20;5.50;;;;;;;29.16;42.21;100401.73;108181;1255;72708;-67
2023/09/21 06:44:31;;;;;;;22.30;5.10;;;;;;;29.38;41.12;100404.44;108188;1253;60277;-67
2023/09/21 06:46:59;;;;;;;9.10;5.20;;;;;;;29.93;39.49;100406.61;108190;1252;60556;-66
2023/09/21 06:49:26;;;;;;;9.50;4.90;;;;;;;30.09;38.70;100409.47;108074;1253;74424;-66
2023/09/21 06:51:56;;;;;;;10.00;5.50;;;;;;;30.38;38.82;100408.52;108211;1254;70065;-68
2023/09/21 06:54:24;;;;;;;17.40;5.80;;;;;;;30.95;38.32;100408.75;108191;1254;72734;-67
2023/09/21 06:56:51;;;;;;;16.20;4.90;;;;;;;31.01;37.41;100407.42;108226;1253;60412;-68
2023/09/21 06:59:19;;;;;;;12.20;5.10;;;;;;;31.25;36.10;100410.56;108236;1256;60723;-65
2023/09/21 07:01:46;;;;;;;13.30;5.10;;;;;;;31.49;35.58;100409.32;108155;1251;73369;-67
2023/09/21 07:04:14;;;;;;;13.50;5.20;;;;;;;31.50;35.49;100408.70;108064;1251;70880;-67
2023/09/21 07:06:42;;;;;;;14.00;5.20;;;;;;;31.71;35.23;100405.66;108274;1252;71393;-67
2023/09/21 07:09:10;;;;;;;13.60;4.20;;;;;;;32.08;35.33;100407.52;108240;1256;61284;-69
2023/09/21 07:11:37;;;;;;;21.70;4.70;;;;;;;32.42;34.38;100410.73;108233;1251;60428;-67
2023/09/21 07:14:05;;;;;;;13.90;5.30;;;;;;;32.69;33.30;100405.67;108316;1251;73911;-68
2023/09/21 07:16:33;;;;;;;10.90;4.80;;;;;;;32.92;32.64;100411.55;108355;1251;70071;-69
2023/09/21 07:19:01;;;;;;;11.40;5.20;;;;;;;33.09;33.11;100409.38;108203;1254;74933;-67
2023/09/21 07:21:28;;;;;;;8.10;5.10;;;;;;;33.31;32.41;100407.24;108192;1251;60303;-68
2023/09/21 07:23:56;;;;;;;8.30;5.40;;;;;;;33.48;32.50;100402.02;108335;1251;58045;-68
2023/09/21 07:26:24;;;;;;;11.90;4.90;;;;;;;33.77;32.71;100401.37;108238;1251;63633;-67
2023/09/21 07:28:52;;;;;;;10.00;5.30;;;;;;;34.12;31.88;100401.09;108257;1251;63497;-68
2023/09/21 07:31:19;;;;;;;9.50;5.10;;;;;;;34.55;31.55;100403.88;108249;1254;65343;-67
2023/09/21 07:33:47;;;;;;;10.80;5.40;;;;;;;35.16;30.54;100397.60;108306;1251;60338;-67
2023/09/21 07:36:15;;;;;;;11.80;5.50;;;;;;;35.59;29.72;100397.40;108337;1252;59121;-67
2023/09/21 07:38:43;;;;;;;11.50;5.50;;;;;;;35.97;29.29;100399.23;108294;1251;63636;-69
2023/09/21 07:41:13;;;;;;;13.70;5.10;;;;;;;36.17;28.53;100400.52;108269;1256;61492;-67
2023/09/21 07:43:41;;;;;;;13.10;4.60;;;;;;;36.02;28.11;100400.19;108267;1251;63715;-68
2023/09/21 07:46:08;;;;;;;9.50;4.20;;;;;;;35.83;27.79;100402.77;108326;1251;60322;-69
2023/09/21 07:48:35;;;;;;;8.50;4.10;;;;;;;35.57;27.15;100402.02;108339;1253;58970;-67
2023/09/21 07:51:04;;;;;;;10.40;4.90;;;;;;;35.32;27.87;100401.09;108257;1251;64932;-67
2023/09/21 07:53:32;;;;;;;15.00;5.10;;;;;;;35.22;28.24;100405.58;108273;1251;60108;-67
2023/09/21 07:56:04;;;;;;;7.70;4.20;;;;;;;35.16;28.08;100404.36;108301;1251;62464;-68
2023/09/21 07:58:32;;;;;;;11.40;4.30;;;;;;;35.18;28.11;100404.27;108266;1254;60418;-68
2023/09/21 08:01:00;;;;;;;7.50;4.20;;;;;;;35.46;27.93;100402.80;108286;1251;60261;-68
2023/09/21 08:03:27;;;;;;;15.20;4.70;;;;;;;35.74;27.69;100395.67;108271;1251;64975;-69
2023/09/21 08:05:55;;;;;;;7.60;4.00;;;;;;;36.06;27.38;100394.68;108181;1251;61707;-68
2023/09/21 08:08:26;;;;;;;6.90;4.30;;;;;;;36.57;26.75;100394.80;108266;1256;65291;-67
2023/09/21 08:10:53;;;;;;;;;;;;;;;36.92;26.46;100396.76;108281;1256;60309;-68
2023/09/21 08:13:21;;;;;;;8.10;4.40;;;;;;;37.03;25.84;100398.83;108246;1253;60441;-68
2023/09/21 08:15:48;;;;;;;9.20;4.00;;;;;;;36.99;25.83;100398.73;108238;1251;63635;-68
2023/09/21 08:18:16;;;;;;;9.00;4.00;;;;;;;37.06;25.68;100396.27;108091;1251;72402;-69
2023/09/21 08:20:44;;;;;;;8.00;4.30;;;;;;;37.11;25.48;100396.20;108281;1253;62621;-69
2023/09/21 08:23:11;;;;;;;8.90;3.70;;;;;;;37.11;25.88;100394.35;108336;1254;60472;-69
2023/09/21 08:25:39;;;;;;;7.20;4.10;;;;;;;37.50;25.65;100392.45;108287;1254;60999;-68
2023/09/21 08:28:07;;;;;;;11.00;3.60;;;;;;;37.97;24.93;100394.02;108388;1251;65317;-68
2023/09/21 08:30:35;;;;;;;5.50;3.30;;;;;;;38.18;24.49;100396.06;108328;1251;61586;-68
2023/09/21 08:33:10;;;;;;;5.50;3.70;;;;;;;38.57;24.55;100396.41;108349;1251;66118;-69
2023/09/21 08:35:40;;;;;;;9.30;3.80;;;;;;;39.00;23.82;100393.34;108200;1254;60303;-68
2023/09/21 08:38:07;;;;;;;7.80;4.20;;;;;;;39.14;23.58;100395.81;108143;1251;60136;-68
2023/09/21 08:40:35;;;;;;;6.70;3.40;;;;;;;38.88;23.58;100397.64;108260;1251;76097;-69
2023/09/21 08:43:04;;;;;;;6.20;3.50;;;;;;;38.75;23.77;100404.75;108067;1251;61528;-69
2023/09/21 08:45:33;;;;;;;12.90;4.20;;;;;;;38.66;23.95;100399.85;108221;1251;71074;-68
2023/09/21 08:48:01;;;;;;;8.10;3.60;;;;;;;38.60;24.00;100398.41;108318;1251;60294;-69
2023/09/21 08:50:29;;;;;;;10.30;3.90;;;;;;;38.21;24.31;100391.96;108319;1257;60317;-68
2023/09/21 08:52:56;;;;;;;7.70;4.00;;;;;;;38.08;24.63;100389.14;108040;1251;76170;-68
2023/09/21 08:55:25;;;;;;;6.80;3.90;;;;;;;37.80;25.36;100390.48;108196;1251;72579;-66
2023/09/21 08:57:53;;;;;;;17.80;4.60;;;;;;;37.49;25.86;100387.84;108240;1251;62504;-66
2023/09/21 09:00:21;;;;;;;7.90;3.90;;;;;;;37.63;25.84;100386.85;108251;1257;60484;-67
2023/09/21 09:02:49;;;;;;;9.00;4.40;;;;;;;37.86;25.82;100384.98;108111;1259;60309;-68
2023/09/21 09:05:17;;;;;;;15.30;4.20;;;;;;;37.73;25.98;100383.63;108046;1251;66589;-67
2023/09/21 09:07:45;;;;;;;7.50;4.50;;;;;;;37.62;26.18;100386.30;108194;1251;60276;-67
2023/09/21 09:10:12;;;;;;;8.90;4.30;;;;;;;37.28;26.22;100391.63;108154;1254;74271;-68
2023/09/21 09:12:40;;;;;;;6.70;3.70;;;;;;;36.60;27.00;100391.88;108297;1251;60230;-68
2023/09/21 09:15:09;;;;;;;7.60;4.00;;;;;;;35.96;27.92;100392.95;108234;1251;60437;-68
2023/09/21 09:17:39;;;;;;;7.90;4.00;;;;;;;35.65;28.34;100397.31;108123;1251;67185;-68
2023/09/21 09:20:08;;;;;;;11.20;4.40;;;;;;;35.73;28.56;100395.89;108249;1254;60485;-67
2023/09/21 09:22:35;;;;;;;6.10;4.10;;;;;;;36.02;27.94;100390.05;108201;1251;74721;-68
2023/09/21 09:25:04;;;;;;;9.40;4.40;;;;;;;36.16;28.04;100388.82;108194;1251;60292;-66
2023/09/21 09:27:33;;;;;;;7.10;4.10;;;;;;;36.16;28.36;100386.89;108321;1251;60415;-67
2023/09/21 09:30:02;;;;;;;7.00;4.30;;;;;;;36.17;28.22;100384.40;108318;1251;63775;-68
2023/09/21 09:32:41;;;;;;;7.50;4.30;;;;;;;36.01;28.38;100387.48;108214;1256;60755;-68
2023/09/21 09:35:13;;;;;;;7.20;4.50;;;;;;;35.97;28.48;100385.44;108263;1251;65030;-67
2023/09/21 09:37:43;;;;;;;6.90;3.90;;;;;;;35.97;28.54;100386.07;108257;1255;59103;-68
2023/09/21 09:40:13;;;;;;;10.70;4.50;;;;;;;35.94;28.71;100382.46;108303;1251;60275;-69
2023/09/21 09:42:41;;;;;;;7.10;4.20;;;;;;;36.07;28.61;100383.46;108220;1251;76463;-68
2023/09/21 09:45:18;;;;;;;8.90;4.50;;;;;;;35.82;28.95;100382.92;108262;1251;72841;-70
2023/09/21 09:47:57;;;;;;;8.40;4.90;;;;;;;35.94;28.67;100382.75;108301;1251;74919;-68
2023/09/21 09:50:25;;;;;;;8.40;4.80;;;;;;;35.94;28.73;100382.75;108226;1251;60412;-68
2023/09/21 09:53:06;;;;;;;9.70;4.40;;;;;;;35.88;28.92;100382.60;108206;1251;60424;-68
2023/09/21 09:55:35;;;;;;;12.30;4.60;;;;;;;35.92;28.69;100375.46;108228;1251;76006;-67
2023/09/21 09:58:03;;;;;;;10.50;4.40;;;;;;;36.03;28.69;100372.86;108259;1251;61719;-66
2023/09/21 10:00:31;;;;;;;12.80;5.00;;;;;;;36.37;28.51;100372.25;108150;1253;64321;-68
2023/09/21 10:02:59;;;;;;;15.00;4.80;;;;;;;36.34;28.41;100372.07;108205;1253;60352;-66
2023/09/21 10:05:27;;;;;;;13.80;4.90;;;;;;;35.82;28.94;100371.16;108279;1251;61250;-66
2023/09/21 10:07:59;;;;;;;11.20;5.10;;;;;;;35.18;29.63;100378.14;108233;1251;67063;-68
2023/09/21 10:10:36;;;;;;;7.90;4.60;;;;;;;34.49;30.45;100377.73;108239;1251;72788;-69
2023/09/21 10:16:09;;;;;;;13.20;5.40;;;;;;;33.67;32.42;100367.90;104788;1290;602313;-67
2023/09/21 10:18:37;;;;;;;7.60;5.30;;;;;;;34.59;31.07;100366.59;107435;1263;59088;-67
2023/09/21 10:21:34;;;;;;;8.20;5.00;;;;;;;34.56;30.84;100361.69;107980;1256;59174;-66
2023/09/21 10:24:13;;;;;;;11.50;5.10;;;;;;;34.21;31.41;100363.56;107890;1256;63631;-67
2023/09/21 10:26:45;;;;;;;12.80;5.60;;;;;;;33.91;31.90;100358.23;107921;1257;61770;-68
2023/09/21 10:29:12;;;;;;;9.20;6.10;;;;;;;33.66;32.28;100355.48;107546;1254;516222;-68
2023/09/21 10:31:42;;;;;;;18.50;6.40;;;;;;;33.14;32.96;100350.91;108112;1253;59019;-66
2023/09/21 10:34:10;;;;;;;12.80;6.00;;;;;;;32.97;33.30;100351.30;108210;1254;59322;-67
2023/09/21 10:36:40;;;;;;;12.70;6.80;;;;;;;32.84;33.39;100349.89;108234;1253;63538;-67
2023/09/21 10:39:13;;;;;;;13.20;6.60;;;;;;;32.69;33.56;100351.36;108211;1253;61826;-68
2023/09/21 10:41:43;;;;;;;18.00;6.90;;;;;;;32.54;33.90;100349.49;108166;1253;72616;-68
2023/09/21 10:44:11;;;;;;;11.60;6.00;;;;;;;32.48;33.99;100349.09;108221;1253;59725;-68
2023/09/21 10:46:37;;;;;;;13.00;6.10;;;;;;;32.49;34.04;100352.79;108203;1252;59500;-68
2023/09/21 10:49:08;;;;;;;15.80;7.60;;;;;;;32.62;33.48;100348.07;108210;1253;62914;-66
2023/09/21 10:51:39;;;;;;;9.30;7.30;;;;;;;32.40;33.67;100341.91;108171;1256;61607;-67
2023/09/21 10:54:10;;;;;;;16.30;7.70;;;;;;;32.09;34.08;100342.74;108142;1254;64981;-67
2023/09/21 10:56:37;;;;;;;16.00;8.00;;;;;;;31.95;34.24;100344.52;108161;1254;59506;-67
2023/09/21 10:59:07;;;;;;;19.70;7.80;;;;;;;31.48;34.97;100351.04;108178;1253;59507;-67
2023/09/21 11:01:37;;;;;;;16.30;8.00;;;;;;;31.03;35.68;100345.18;108066;1258;72837;-67
2023/09/21 11:04:03;;;;;;;18.10;9.10;;;;;;;31.07;35.71;100347.17;108128;1253;69597;-67
2023/09/21 11:06:30;;;;;;;16.30;8.20;;;;;;;31.03;36.05;100352.29;108082;1253;72688;-67
2023/09/21 11:08:57;;;;;;;15.70;8.50;;;;;;;30.88;36.57;100348.66;108100;1253;60298;-67
2023/09/21 11:11:25;;;;;;;12.80;8.20;;;;;;;30.76;36.85;100347.89;108085;1253;60985;-67
2023/09/21 11:13:52;;;;;;;16.50;8.30;;;;;;;30.76;38.62;100343.71;108158;1257;73679;-68
2023/09/21 11:16:18;;;;;;;14.20;9.20;;;;;;;30.55;39.02;100348.70;108203;1253;72207;-67
2023/09/21 11:18:46;;;;;;;13.70;8.30;;;;;;;30.30;39.69;100348.55;108151;1253;72551;-67